Latest Weather Observations for Banana Bank

IDQ60901

Issued at 11:11 am EST Monday 25 May 2015 (issued every 10 minutes, with the page automatically refreshed every 10 minutes)

About weather observations | Map of Brisbane area stations | Latest observations for Brisbane area | Other Formats
Station Details ID: 040925 Name: BANANA BANK NORTH BEACON Lat: -27.53 Lon: 153.33 Height: 7.0 m
Data from the previous 72 hours. | See also: Recent months for locations in Queensland
Date/Time
EST
Tmp

°C
App
Tmp
°C
Dew
Point
°C
Rel
Hum
%
Delta-T

°C
Wind Press
QNH
hPa
Press
MSL
hPa
Rain
since
9 am
mm
Dir
 
Spd
km/h
Gust
km/h
Spd
kts
Gust
kts
25/11:00am - - - - - SSE 17 19 9 10 - - -
25/10:30am - - - - - S 19 24 10 13 - - -
25/10:00am - - - - - S 19 20 10 11 - - -
25/09:30am - - - - - S 15 17 8 9 - - -
25/09:00am - - - - - S 15 19 8 10 - - -
25/08:30am - - - - - S 17 20 9 11 - - -
25/08:00am - - - - - S 13 17 7 9 - - -
25/07:30am - - - - - S 13 15 7 8 - - -
25/07:00am - - - - - SSW 9 11 5 6 - - -
25/06:30am - - - - - SW 11 13 6 7 - - -
25/06:00am - - - - - SSW 9 11 5 6 - - -
25/05:30am - - - - - SW 11 13 6 7 - - -
25/05:00am - - - - - SW 13 15 7 8 - - -
25/04:30am - - - - - SSW 11 13 6 7 - - -
25/04:00am - - - - - SSW 13 15 7 8 - - -
25/03:30am - - - - - SSW 15 17 8 9 - - -
25/03:00am - - - - - SSW 20 24 11 13 - - -
25/02:30am - - - - - SSW 20 26 11 14 - - -
25/02:00am - - - - - S 20 24 11 13 - - -
25/01:30am - - - - - SSW 17 19 9 10 - - -
25/01:00am - - - - - SSW 13 17 7 9 - - -
25/12:30am - - - - - SSW 15 17 8 9 - - -
25/12:00am - - - - - SSW 15 17 8 9 - - -
 
Date/Time
EST
Tmp

°C
App
Tmp
°C
Dew
Point
°C
Rel
Hum
%
Delta-T

°C
Wind Press
QNH
hPa
Press
MSL
hPa
Rain
since
9 am
mm
Dir
 
Spd
km/h
Gust
km/h
Spd
kts
Gust
kts
24/11:30pm - - - - - SSW 13 17 7 9 - - -
24/11:00pm - - - - - S 15 19 8 10 - - -
24/10:30pm - - - - - S 17 20 9 11 - - -
24/10:00pm - - - - - S 20 24 11 13 - - -
24/09:30pm - - - - - S 22 26 12 14 - - -
24/09:00pm - - - - - S 20 28 11 15 - - -
24/08:30pm - - - - - SSW 22 26 12 14 - - -
24/08:00pm - - - - - S 20 24 11 13 - - -
24/07:30pm - - - - - S 22 28 12 15 - - -
24/07:00pm - - - - - S 22 30 12 16 - - -
24/06:30pm - - - - - S 24 32 13 17 - - -
24/06:00pm - - - - - S 22 28 12 15 - - -
24/05:30pm - - - - - SSE 20 26 11 14 - - -
24/05:00pm - - - - - S 20 26 11 14 - - -
24/04:30pm - - - - - SSE 37 46 20 25 - - -
24/04:00pm - - - - - SSE 33 43 18 23 - - -
24/03:30pm - - - - - SSE 30 37 16 20 - - -
24/03:00pm - - - - - SSE 32 39 17 21 - - -
24/02:30pm - - - - - SSE 26 32 14 17 - - -
24/02:00pm - - - - - SSE 28 33 15 18 - - -
24/01:30pm - - - - - SSE 30 39 16 21 - - -
24/01:00pm - - - - - SSE 32 39 17 21 - - -
24/12:30pm - - - - - SSE 32 39 17 21 - - -
24/12:00pm - - - - - SSE 30 39 16 21 - - -
24/11:30am - - - - - SSE 30 37 16 20 - - -
24/11:00am - - - - - SSE 32 37 17 20 - - -
24/10:30am - - - - - S 22 30 12 16 - - -
24/10:00am - - - - - S 19 22 10 12 - - -
24/09:30am - - - - - S 20 24 11 13 - - -
24/09:00am - - - - - S 20 22 11 12 - - -
24/08:30am - - - - - SSW 22 26 12 14 - - -
24/08:00am - - - - - SSW 17 19 9 10 - - -
24/07:30am - - - - - SSW 20 22 11 12 - - -
24/07:00am - - - - - SSW 20 26 11 14 - - -
24/06:30am - - - - - SSW 17 19 9 10 - - -
24/06:00am - - - - - SSW 15 17 8 9 - - -
24/05:30am - - - - - SSW 13 15 7 8 - - -
24/05:00am - - - - - SSW 17 19 9 10 - - -
24/04:30am - - - - - SSW 13 17 7 9 - - -
24/04:00am - - - - - SSW 11 15 6 8 - - -
24/03:30am - - - - - SSW 17 22 9 12 - - -
24/03:00am - - - - - SW 20 26 11 14 - - -
24/02:30am - - - - - SSW 19 22 10 12 - - -
24/02:00am - - - - - SW 13 20 7 11 - - -
24/01:30am - - - - - SW 9 13 5 7 - - -
24/01:00am - - - - - SSW 15 22 8 12 - - -
24/12:30am - - - - - S 17 20 9 11 - - -
24/12:00am - - - - - S 26 30 14 16 - - -
 
Date/Time
EST
Tmp

°C
App
Tmp
°C
Dew
Point
°C
Rel
Hum
%
Delta-T

°C
Wind Press
QNH
hPa
Press
MSL
hPa
Rain
since
9 am
mm
Dir
 
Spd
km/h
Gust
km/h
Spd
kts
Gust
kts
23/11:30pm - - - - - S 24 33 13 18 - - -
23/11:00pm - - - - - SSW 19 22 10 12 - - -
23/10:30pm - - - - - SSW 17 20 9 11 - - -
23/10:00pm - - - - - SSW 17 20 9 11 - - -
23/09:30pm - - - - - SSW 20 26 11 14 - - -
23/09:00pm - - - - - SSW 20 24 11 13 - - -
23/08:30pm - - - - - SSW 20 24 11 13 - - -
23/08:00pm - - - - - SSW 19 20 10 11 - - -
23/07:30pm - - - - - SSW 20 24 11 13 - - -
23/07:00pm - - - - - SSW 20 24 11 13 - - -
23/06:30pm - - - - - S 26 32 14 17 - - -
23/06:00pm - - - - - SSW 17 20 9 11 - - -
23/05:30pm - - - - - S 24 30 13 16 - - -
23/05:00pm - - - - - S 26 32 14 17 - - -
23/04:30pm - - - - - S 28 37 15 20 - - -
23/04:00pm - - - - - S 28 33 15 18 - - -
23/03:30pm - - - - - S 33 43 18 23 - - -
23/03:00pm - - - - - S 39 46 21 25 - - -
23/02:30pm - - - - - SSE 41 48 22 26 - - -
23/02:00pm - - - - - S 37 48 20 26 - - -
23/01:30pm - - - - - S 37 48 20 26 - - -
23/01:00pm - - - - - S 39 56 21 30 - - -
23/12:30pm - - - - - SSE 43 54 23 29 - - -
23/12:01pm - - - - - S 35 56 19 30 - - -
23/12:00pm - - - - - S 37 56 20 30 - - -
23/11:30am - - - - - SSE 41 50 22 27 - - -
23/11:00am - - - - - S 41 52 22 28 - - -
23/10:31am - - - - - S 41 61 22 33 - - -
23/10:30am - - - - - S 41 52 22 28 - - -
23/10:00am - - - - - S 37 46 20 25 - - -
23/09:30am - - - - - S 33 44 18 24 - - -
23/09:00am - - - - - SSW 26 32 14 17 - - -
23/08:30am - - - - - SSW 20 26 11 14 - - -
23/08:00am - - - - - SW 17 20 9 11 - - -
23/07:30am - - - - - SSW 17 20 9 11 - - -
23/07:00am - - - - - SSW 17 20 9 11 - - -
23/06:30am - - - - - SW 11 15 6 8 - - -
23/06:00am - - - - - SSW 20 26 11 14 - - -
23/05:30am - - - - - SSW 19 22 10 12 - - -
23/05:00am - - - - - SSW 22 28 12 15 - - -
23/04:30am - - - - - SW 22 28 12 15 - - -
23/04:00am - - - - - SW 20 24 11 13 - - -
23/03:30am - - - - - SW 22 26 12 14 - - -
23/03:00am - - - - - SW 20 26 11 14 - - -
23/02:30am - - - - - WSW 22 26 12 14 - - -
23/02:00am - - - - - WSW 13 19 7 10 - - -
23/01:30am - - - - - WSW 13 19 7 10 - - -
23/01:00am - - - - - WSW 15 20 8 11 - - -
23/12:30am - - - - - WSW 17 26 9 14 - - -
23/12:00am - - - - - WSW 19 28 10 15 - - -
 
Date/Time
EST
Tmp

°C
App
Tmp
°C
Dew
Point
°C
Rel
Hum
%
Delta-T

°C
Wind Press
QNH
hPa
Press
MSL
hPa
Rain
since
9 am
mm
Dir
 
Spd
km/h
Gust
km/h
Spd
kts
Gust
kts
22/11:30pm - - - - - WSW 24 32 13 17 - - -
22/11:00pm - - - - - W 24 32 13 17 - - -
22/10:30pm - - - - - WSW 24 33 13 18 - - -
22/10:00pm - - - - - W 24 30 13 16 - - -
22/09:30pm - - - - - W 28 33 15 18 - - -
22/09:00pm - - - - - W 28 35 15 19 - - -
22/08:30pm - - - - - WSW 26 39 14 21 - - -
22/08:00pm - - - - - WSW 20 30 11 16 - - -
22/07:30pm - - - - - WSW 20 28 11 15 - - -
22/07:00pm - - - - - WSW 19 26 10 14 - - -
22/06:30pm - - - - - WSW 22 32 12 17 - - -
22/06:00pm - - - - - W 22 28 12 15 - - -
22/05:30pm - - - - - WSW 17 24 9 13 - - -
22/05:00pm - - - - - WSW 30 39 16 21 - - -
22/04:30pm - - - - - WSW 26 41 14 22 - - -
22/04:00pm - - - - - WSW 24 39 13 21 - - -
22/03:30pm - - - - - WSW 24 44 13 24 - - -
22/03:00pm - - - - - WSW 33 52 18 28 - - -
22/02:56pm - - - - - WSW 30 50 16 27 - - -
22/02:30pm - - - - - W 32 43 17 23 - - -
22/02:00pm - - - - - W 37 46 20 25 - - -
22/01:30pm - - - - - W 35 46 19 25 - - -
22/01:00pm - - - - - W 33 48 18 26 - - -
22/12:36pm - - - - - W 28 46 15 25 - - -
22/12:30pm - - - - - W 37 46 20 25 - - -
22/12:00pm - - - - - W 28 43 15 23 - - -
22/11:30am - - - - - W 32 41 17 22 - - -

Latest Capital City Observations: Canberra | Sydney | Melbourne | Brisbane | Adelaide | Perth | Hobart | Darwin

Other Formats:

Comma delimited format used in spreadsheet applications
http://www.bom.gov.au/fwo/IDQ60901/IDQ60901.94591.axf

JavaScript Object Notation format (JSON) in row-major order
http://www.bom.gov.au/fwo/IDQ60901/IDQ60901.94591.json